Time;durP1;ratioP1;P1;durP2;ratioP2;P2;SDS_P1;SDS_P2;PMS_P1;PMS_P2;Temp;Humidity;BMP_temperature;BMP_pressure;BME280_temperature;BME280_humidity;BME280_pressure;Samples;Min_cycle;Max_cycle;Signal;HPM_P1;HPM_P2
2021/12/01 00:00:43;;;;;;;0.30;0.10;;;23.00;36.50;;;;;;5025850;28;20103;-46
2021/12/01 00:03:09;;;;;;;1.17;0.13;;;23.00;36.50;;;;;;5025533;28;20029;-47
2021/12/01 00:05:35;;;;;;;0.63;0.20;;;23.00;36.50;;;;;;5030357;28;20028;-45
2021/12/01 00:08:02;;;;;;;0.40;0.20;;;23.00;36.40;;;;;;5024026;28;20029;-46
2021/12/01 00:10:29;;;;;;;0.68;0.20;;;23.00;36.50;;;;;;5031779;28;20603;-44
2021/12/01 00:12:55;;;;;;;0.30;0.13;;;22.90;36.40;;;;;;5025065;28;20056;-46
2021/12/01 00:15:21;;;;;;;0.32;0.20;;;22.90;36.50;;;;;;5024299;28;20029;-46
2021/12/01 00:17:48;;;;;;;0.17;0.10;;;22.90;36.50;;;;;;5026543;28;20033;-47
2021/12/01 00:20:16;;;;;;;0.90;0.30;;;22.90;36.50;;;;;;5025801;28;20398;-45
2021/12/01 00:22:43;;;;;;;0.40;0.20;;;22.90;36.50;;;;;;5026224;28;20064;-45
2021/12/01 00:25:11;;;;;;;0.43;0.20;;;22.80;36.30;;;;;;5026532;28;20057;-46
2021/12/01 00:27:38;;;;;;;0.40;0.20;;;22.80;36.40;;;;;;5025918;28;20112;-46
2021/12/01 00:30:05;;;;;;;0.38;0.20;;;22.80;36.50;;;;;;5025166;28;20030;-46
2021/12/01 00:32:31;;;;;;;0.60;0.20;;;22.80;36.60;;;;;;5025684;28;20509;-46
2021/12/01 00:34:59;;;;;;;0.65;0.22;;;22.80;36.70;;;;;;5025709;28;20028;-45
2021/12/01 00:37:25;;;;;;;0.70;0.20;;;22.80;36.60;;;;;;5024762;28;20048;-44
2021/12/01 00:39:51;;;;;;;0.50;0.15;;;22.80;36.80;;;;;;5026360;28;20481;-45
2021/12/01 00:42:18;;;;;;;0.60;0.17;;;22.80;36.50;;;;;;5025960;28;20029;-46
2021/12/01 00:44:47;;;;;;;0.50;0.17;;;22.70;36.50;;;;;;5025646;28;20021;-45
2021/12/01 00:47:14;;;;;;;0.50;0.10;;;22.70;36.50;;;;;;5025016;28;20021;-46
2021/12/01 00:49:40;;;;;;;1.00;0.20;;;22.70;36.50;;;;;;5023833;28;20533;-46
2021/12/01 00:52:07;;;;;;;0.45;0.17;;;22.70;36.50;;;;;;5024879;28;20559;-46
2021/12/01 00:54:33;;;;;;;0.38;0.20;;;22.70;36.50;;;;;;5024517;28;20109;-45
2021/12/01 00:56:58;;;;;;;0.80;0.30;;;22.70;36.50;;;;;;5025866;28;20255;-46
2021/12/01 00:59:24;;;;;;;0.63;0.15;;;22.70;36.50;;;;;;5025182;28;20079;-46
2021/12/01 01:01:51;;;;;;;1.25;0.20;;;22.60;36.40;;;;;;5024883;28;20041;-44
2021/12/01 01:04:17;;;;;;;0.55;0.17;;;22.60;36.40;;;;;;5025410;28;20136;-47
2021/12/01 01:06:43;;;;;;;0.43;0.15;;;22.60;36.40;;;;;;5025512;28;20080;-46
2021/12/01 01:09:10;;;;;;;0.63;0.22;;;22.60;36.40;;;;;;5025282;28;20037;-47
2021/12/01 01:17:08;;;;;;;0.03;0.03;;;22.60;36.40;;;;;;5024252;28;20095;-47
2021/12/01 01:19:36;;;;;;;0.73;0.20;;;22.60;36.40;;;;;;5024081;28;20765;-46
2021/12/01 01:22:04;;;;;;;0.28;0.10;;;22.50;36.40;;;;;;5024370;28;20061;-46
2021/12/01 01:24:30;;;;;;;0.40;0.17;;;22.50;36.40;;;;;;5003494;28;20450;-46
2021/12/01 01:26:56;;;;;;;0.75;0.20;;;22.50;36.40;;;;;;5004808;28;20029;-44
2021/12/01 01:29:23;;;;;;;0.40;0.20;;;22.50;36.50;;;;;;5005350;28;20034;-45
2021/12/01 01:31:54;;;;;;;0.25;0.10;;;22.50;36.40;;;;;;5020981;28;20032;-45
2021/12/01 01:34:20;;;;;;;0.52;0.10;;;22.50;36.50;;;;;;5024509;28;20480;-46
2021/12/01 01:36:46;;;;;;;0.57;0.10;;;22.50;36.50;;;;;;5025203;28;20041;-46
2021/12/01 01:39:11;;;;;;;0.70;0.20;;;22.50;36.50;;;;;;5008520;28;20034;-46
2021/12/01 01:41:37;;;;;;;0.45;0.13;;;22.40;36.40;;;;;;5015179;28;20087;-45
2021/12/01 01:44:04;;;;;;;0.10;0.10;;;22.50;36.50;;;;;;5024988;28;20640;-45
2021/12/01 01:46:35;;;;;;;0.20;0.10;;;22.40;36.40;;;;;;5024341;28;20025;-45
2021/12/01 01:49:09;;;;;;;0.30;0.20;;;22.40;36.40;;;;;;5024915;28;20040;-47
2021/12/01 01:51:35;;;;;;;0.68;0.10;;;22.40;36.40;;;;;;5043039;28;20067;-46
2021/12/01 01:54:01;;;;;;;0.20;0.10;;;22.40;36.40;;;;;;5031075;28;20034;-45
2021/12/01 01:56:28;;;;;;;0.03;0.03;;;22.40;36.50;;;;;;5024612;28;20053;-46
2021/12/01 01:58:55;;;;;;;0.20;0.10;;;22.40;36.40;;;;;;5024401;28;20625;-46
2021/12/01 02:04:06;;;;;;;1.27;0.40;;;22.30;36.50;;;;;;5023626;28;20405;-47
2021/12/01 02:06:32;;;;;;;0.15;0.10;;;22.30;36.50;;;;;;5023579;28;20033;-46
2021/12/01 02:08:58;;;;;;;0.25;0.10;;;22.30;36.50;;;;;;5021415;28;20460;-45
2021/12/01 02:11:26;;;;;;;0.17;0.10;;;22.30;36.50;;;;;;5023637;28;20033;-47
2021/12/01 02:13:53;;;;;;;0.17;0.05;;;22.30;36.50;;;;;;5023517;28;20025;-46
2021/12/01 02:16:20;;;;;;;0.50;0.10;;;22.30;37.10;;;;;;5022895;28;20024;-47
2021/12/01 02:18:46;;;;;;;0.40;0.13;;;22.30;36.50;;;;;;5024203;28;20120;-46
2021/12/01 02:21:41;;;;;;;0.28;0.10;;;22.30;36.50;;;;;;5024186;28;20048;-45
2021/12/01 02:24:13;;;;;;;0.08;0.08;;;22.20;36.40;;;;;;5023339;28;20125;-45
2021/12/01 02:26:44;;;;;;;0.30;0.10;;;22.30;36.50;;;;;;5024222;28;20061;-45
2021/12/01 02:29:12;;;;;;;0.10;0.10;;;22.20;36.40;;;;;;5023982;28;20033;-45
2021/12/01 02:31:39;;;;;;;0.32;0.10;;;22.20;36.40;;;;;;5023803;28;20029;-46
2021/12/01 02:34:09;;;;;;;0.55;0.10;;;22.20;36.40;;;;;;5023199;28;20395;-45
2021/12/01 02:36:35;;;;;;;0.30;0.10;;;22.20;36.40;;;;;;5023131;28;20080;-45
2021/12/01 02:39:04;;;;;;;0.30;0.10;;;22.20;36.50;;;;;;5026546;28;20029;-46
2021/12/01 02:41:32;;;;;;;0.45;0.10;;;22.20;36.40;;;;;;5027262;28;20516;-47
2021/12/01 02:44:00;;;;;;;0.38;0.10;;;22.20;36.40;;;;;;5027765;28;20551;-46
2021/12/01 02:46:27;;;;;;;0.15;0.05;;;22.20;36.40;;;;;;5028083;28;20030;-45
2021/12/01 02:48:53;;;;;;;0.25;0.10;;;22.20;36.40;;;;;;5027701;28;20060;-44
2021/12/01 02:51:23;;;;;;;0.15;0.10;;;22.20;36.40;;;;;;5044538;28;20481;-48
2021/12/01 02:53:48;;;;;;;0.30;0.10;;;22.20;36.40;;;;;;5037044;28;20026;-45
2021/12/01 02:56:16;;;;;;;0.47;0.13;;;22.20;36.40;;;;;;5027386;28;20033;-46
2021/12/01 02:58:44;;;;;;;0.20;0.10;;;22.10;36.50;;;;;;5027910;28;20108;-46
2021/12/01 03:01:20;;;;;;;0.30;0.10;;;22.10;36.40;;;;;;5026670;28;20095;-46
2021/12/01 03:03:46;;;;;;;0.63;0.10;;;22.10;36.50;;;;;;5026945;28;20033;-46
2021/12/01 03:06:13;;;;;;;0.00;0.00;;;22.10;36.40;;;;;;5026883;28;20396;-46
2021/12/01 03:08:42;;;;;;;0.10;0.10;;;22.10;36.40;;;;;;5026650;28;20041;-46
2021/12/01 03:11:09;;;;;;;0.20;0.10;;;22.10;36.50;;;;;;5026104;28;20097;-47
2021/12/01 03:13:35;;;;;;;0.45;0.10;;;22.10;36.50;;;;;;5026964;28;20036;-46
2021/12/01 03:16:00;;;;;;;0.00;0.00;;;22.10;36.50;;;;;;5026795;28;20037;-46
2021/12/01 03:18:27;;;;;;;0.30;0.10;;;22.10;37.10;;;;;;5027113;28;20034;-45
2021/12/01 03:20:54;;;;;;;0.10;0.10;;;22.10;36.50;;;;;;5027615;28;20022;-47
2021/12/01 03:23:20;;;;;;;0.50;0.10;;;22.10;36.50;;;;;;5026678;28;20125;-44
2021/12/01 03:25:46;;;;;;;0.00;0.00;;;22.00;36.50;;;;;;5027607;28;20025;-46
2021/12/01 03:28:12;;;;;;;0.57;0.20;;;22.00;36.50;;;;;;5042009;28;20026;-44
2021/12/01 03:30:39;;;;;;;0.15;0.00;;;22.00;36.50;;;;;;5026829;28;20033;-45
2021/12/01 03:33:10;;;;;;;0.20;0.00;;;22.00;36.60;;;;;;5026733;28;20021;-46
2021/12/01 03:35:39;;;;;;;0.43;0.08;;;22.00;36.80;;;;;;5027477;28;20730;-45
2021/12/01 03:38:05;;;;;;;0.13;0.08;;;22.00;36.80;;;;;;5026795;28;20163;-44
2021/12/01 03:40:31;;;;;;;0.10;0.10;;;22.00;36.80;;;;;;5026872;28;20029;-46
2021/12/01 03:42:57;;;;;;;0.60;0.17;;;22.00;36.70;;;;;;5026811;28;20601;-45
2021/12/01 03:45:22;;;;;;;0.10;0.00;;;22.00;36.80;;;;;;5027047;28;20116;-46
2021/12/01 03:47:48;;;;;;;0.15;0.00;;;22.00;36.80;;;;;;5026867;28;20086;-46
2021/12/01 03:50:14;;;;;;;0.20;0.00;;;22.00;36.80;;;;;;5032707;28;20032;-46
2021/12/01 03:52:40;;;;;;;0.30;0.20;;;22.00;36.80;;;;;;5045615;28;20551;-46
2021/12/01 03:55:07;;;;;;;0.00;0.00;;;22.00;36.80;;;;;;5026002;28;20109;-46
2021/12/01 03:57:33;;;;;;;0.10;0.00;;;22.00;36.80;;;;;;5025922;28;20650;-45
2021/12/01 03:59:59;;;;;;;0.73;0.38;;;22.00;36.90;;;;;;5026976;28;20033;-45
2021/12/01 04:02:25;;;;;;;0.60;0.22;;;22.00;36.80;;;;;;5026588;28;20108;-45
2021/12/01 04:04:50;;;;;;;0.10;0.00;;;22.00;36.80;;;;;;5026994;28;20502;-45
2021/12/01 04:07:16;;;;;;;0.45;0.10;;;22.00;36.90;;;;;;5025190;28;20083;-45
2021/12/01 04:09:44;;;;;;;0.43;0.10;;;22.00;36.80;;;;;;5025311;28;20034;-45
2021/12/01 04:12:10;;;;;;;0.08;0.00;;;22.00;36.70;;;;;;5026492;28;20057;-45
2021/12/01 04:14:36;;;;;;;0.50;0.15;;;22.00;36.60;;;;;;5026253;28;20041;-45
2021/12/01 04:17:02;;;;;;;0.22;0.00;;;21.90;36.60;;;;;;5025947;28;20017;-47
2021/12/01 04:19:28;;;;;;;0.25;0.10;;;21.90;36.60;;;;;;5025808;28;20520;-47
2021/12/01 04:21:54;;;;;;;0.10;0.10;;;21.90;36.60;;;;;;5025637;28;20065;-45
2021/12/01 04:24:20;;;;;;;0.55;0.10;;;21.90;36.60;;;;;;5011047;28;20556;-45
2021/12/01 04:26:46;;;;;;;0.17;0.10;;;21.90;36.70;;;;;;5006082;28;20034;-45
2021/12/01 04:29:11;;;;;;;0.47;0.30;;;21.90;36.70;;;;;;5005966;28;20045;-47
2021/12/01 04:31:38;;;;;;;0.10;0.00;;;21.90;36.70;;;;;;5004462;28;20486;-45
2021/12/01 04:34:05;;;;;;;0.40;0.10;;;21.90;36.70;;;;;;5005716;28;20060;-48
2021/12/01 04:36:34;;;;;;;0.45;0.20;;;21.90;36.70;;;;;;5021297;28;20022;-45
2021/12/01 04:39:01;;;;;;;0.20;0.00;;;21.80;36.60;;;;;;5016213;28;20551;-45
2021/12/01 04:41:29;;;;;;;0.17;0.10;;;21.80;36.70;;;;;;5023942;28;20021;-45
2021/12/01 04:43:57;;;;;;;0.10;0.10;;;21.80;36.70;;;;;;5025938;28;20052;-45
2021/12/01 04:46:23;;;;;;;0.22;0.10;;;21.80;36.70;;;;;;5025758;28;20029;-45
2021/12/01 04:48:48;;;;;;;0.10;0.10;;;21.90;36.80;;;;;;5025219;28;20037;-44
2021/12/01 04:51:17;;;;;;;0.30;0.10;;;21.80;36.80;;;;;;5041655;28;20052;-46
2021/12/01 04:53:43;;;;;;;0.20;0.10;;;21.90;36.90;;;;;;5036367;28;20478;-46
2021/12/01 04:56:09;;;;;;;0.20;0.10;;;21.80;36.90;;;;;;5024864;28;20025;-46
2021/12/01 04:58:35;;;;;;;0.10;0.00;;;21.80;36.90;;;;;;5024314;28;20075;-47
2021/12/01 05:01:02;;;;;;;0.10;0.10;;;21.80;36.90;;;;;;5023398;28;20041;-46
2021/12/01 05:03:29;;;;;;;0.30;0.10;;;21.80;36.90;;;;;;5034066;28;20386;-45
2021/12/01 05:05:56;;;;;;;0.20;0.10;;;21.80;37.10;;;;;;5026841;28;20033;-46
2021/12/01 05:08:23;;;;;;;0.25;0.10;;;21.80;37.20;;;;;;5040527;28;20171;-46
2021/12/01 05:10:49;;;;;;;0.32;0.00;;;21.80;37.30;;;;;;5035904;28;20717;-45
2021/12/01 05:13:15;;;;;;;0.35;0.20;;;21.80;37.30;;;;;;5026050;28;20040;-45
2021/12/01 05:15:41;;;;;;;0.20;0.10;;;21.80;37.40;;;;;;5025509;28;20030;-47
2021/12/01 05:18:08;;;;;;;0.47;0.10;;;21.80;37.50;;;;;;5024590;28;20040;-46
2021/12/01 05:20:35;;;;;;;0.43;0.13;;;21.70;37.60;;;;;;5023578;28;20021;-46
2021/12/01 05:23:00;;;;;;;0.50;0.30;;;21.80;37.60;;;;;;5023796;28;20033;-46
2021/12/01 05:25:26;;;;;;;0.20;0.10;;;21.80;37.70;;;;;;5005444;28;20030;-45
2021/12/01 05:27:52;;;;;;;0.20;0.10;;;21.80;37.70;;;;;;5005305;28;20030;-45
2021/12/01 05:30:19;;;;;;;0.30;0.10;;;21.80;37.80;;;;;;5005237;28;20104;-46
2021/12/01 05:32:45;;;;;;;0.57;0.10;;;21.90;37.90;;;;;;5004558;28;20441;-45
2021/12/01 05:35:10;;;;;;;0.13;0.00;;;21.80;37.80;;;;;;5037318;28;20036;-47
2021/12/01 05:37:36;;;;;;;0.40;0.10;;;21.90;37.90;;;;;;5036839;28;20018;-46
2021/12/01 05:40:03;;;;;;;0.20;0.10;;;22.00;37.90;;;;;;5022651;28;20108;-45
2021/12/01 05:42:28;;;;;;;0.10;0.10;;;22.00;37.90;;;;;;5028137;28;20571;-46
2021/12/01 05:44:55;;;;;;;0.45;0.20;;;22.00;37.80;;;;;;5034275;28;20029;-44
2021/12/01 05:47:21;;;;;;;0.22;0.10;;;22.20;37.80;;;;;;5024253;28;20104;-46
2021/12/01 05:49:47;;;;;;;0.40;0.10;;;22.20;37.80;;;;;;5028384;28;20108;-45
2021/12/01 05:52:15;;;;;;;0.00;0.00;;;22.30;37.70;;;;;;5044520;28;20021;-46
2021/12/01 05:54:43;;;;;;;0.10;0.10;;;22.40;37.70;;;;;;5030154;28;20540;-46
2021/12/01 05:57:10;;;;;;;0.10;0.10;;;22.40;37.60;;;;;;5024636;28;20032;-45
2021/12/01 05:59:35;;;;;;;0.35;0.10;;;22.50;37.60;;;;;;5023383;28;20482;-45
2021/12/01 06:02:01;;;;;;;0.17;0.10;;;22.60;37.50;;;;;;5023547;28;20048;-45
2021/12/01 06:04:28;;;;;;;0.30;0.10;;;22.60;37.30;;;;;;5024317;28;20103;-45
2021/12/01 06:06:54;;;;;;;1.05;0.20;;;22.70;37.30;;;;;;5022209;28;20484;-46
2021/12/01 06:09:20;;;;;;;0.88;0.22;;;22.80;37.30;;;;;;5023037;28;20041;-44
2021/12/01 06:11:47;;;;;;;0.57;0.10;;;22.80;37.30;;;;;;5023712;28;20715;-44
2021/12/01 06:14:14;;;;;;;0.88;0.20;;;22.90;37.50;;;;;;5023901;28;20026;-45
2021/12/01 06:16:40;;;;;;;1.75;0.22;;;23.00;37.60;;;;;;5019259;28;20025;-46
2021/12/01 06:19:06;;;;;;;0.80;0.10;;;23.00;37.50;;;;;;5019762;28;20684;-46
2021/12/01 06:21:32;;;;;;;0.73;0.10;;;23.10;37.70;;;;;;5020185;28;20053;-44
2021/12/01 06:23:57;;;;;;;0.98;0.17;;;23.10;37.80;;;;;;5021964;28;20075;-43
2021/12/01 06:26:23;;;;;;;1.85;0.10;;;23.20;37.80;;;;;;5022014;28;20107;-43
2021/12/01 06:28:49;;;;;;;0.85;0.30;;;23.20;37.70;;;;;;5021966;28;20045;-44
2021/12/01 06:31:14;;;;;;;0.90;0.22;;;23.30;37.80;;;;;;5021744;28;20029;-46
2021/12/01 06:33:40;;;;;;;1.75;0.40;;;23.40;37.80;;;;;;5022139;28;20021;-47
2021/12/01 06:36:06;;;;;;;1.20;0.32;;;23.40;37.80;;;;;;5020574;28;20084;-45
2021/12/01 06:38:32;;;;;;;0.40;0.10;;;23.50;37.80;;;;;;5018879;28;20060;-46
2021/12/01 06:40:58;;;;;;;1.23;0.25;;;23.50;37.90;;;;;;5020404;28;20509;-46
2021/12/01 06:43:24;;;;;;;2.15;0.80;;;23.60;38.00;;;;;;5019735;28;20124;-45
2021/12/01 06:45:50;;;;;;;1.85;0.40;;;23.70;38.00;;;;;;5022970;28;20034;-46
2021/12/01 06:48:15;;;;;;;1.88;0.63;;;23.70;37.90;;;;;;5022777;28;20062;-46
2021/12/01 06:50:41;;;;;;;2.17;0.60;;;23.80;38.00;;;;;;5022764;28;20026;-45
2021/12/01 06:53:07;;;;;;;1.73;0.63;;;23.80;37.90;;;;;;5022868;28;20052;-45
2021/12/01 06:55:33;;;;;;;2.30;0.50;;;23.80;37.90;;;;;;5023247;28;20048;-45
2021/12/01 06:58:00;;;;;;;3.45;0.60;;;23.90;37.90;;;;;;5023188;28;20029;-47
2021/12/01 07:00:25;;;;;;;2.17;0.77;;;23.90;37.90;;;;;;5022503;28;20037;-45
2021/12/01 07:02:52;;;;;;;2.15;0.60;;;24.00;37.90;;;;;;5021690;28;20078;-46
2021/12/01 07:05:18;;;;;;;3.78;0.90;;;24.00;38.00;;;;;;5023845;28;20046;-46
2021/12/01 07:07:44;;;;;;;3.22;1.10;;;24.10;38.00;;;;;;5018881;28;20036;-49
2021/12/01 07:10:11;;;;;;;4.60;1.33;;;24.10;37.90;;;;;;5022747;28;20054;-49
2021/12/01 07:12:38;;;;;;;4.63;1.80;;;24.20;37.80;;;;;;5014115;28;20083;-47
2021/12/01 07:15:04;;;;;;;3.97;1.25;;;24.30;37.70;;;;;;5017071;28;20634;-47
2021/12/01 07:17:30;;;;;;;3.67;1.08;;;24.30;37.80;;;;;;5020469;28;20075;-47
2021/12/01 07:19:56;;;;;;;5.13;1.52;;;24.30;37.50;;;;;;5022408;28;20029;-45
2021/12/01 07:22:22;;;;;;;2.83;0.90;;;24.40;37.20;;;;;;5020811;28;20525;-47
2021/12/01 07:24:47;;;;;;;3.80;1.42;;;24.40;37.20;;;;;;5024032;28;20292;-48
2021/12/01 07:27:15;;;;;;;6.70;1.48;;;24.50;37.10;;;;;;5025470;28;20034;-48
2021/12/01 07:29:42;;;;;;;3.60;1.20;;;24.50;36.90;;;;;;5024670;28;20041;-46
2021/12/01 07:32:08;;;;;;;3.92;0.90;;;24.60;36.70;;;;;;5026092;28;20056;-48
2021/12/01 07:34:41;;;;;;;4.90;1.70;;;24.60;36.50;;;;;;5026404;28;20482;-48
2021/12/01 07:37:10;;;;;;;;;;;24.60;36.30;;;;;;5025280;28;20065;-47
2021/12/01 07:39:36;;;;;;;3.70;1.00;;;24.70;36.50;;;;;;5039510;28;20366;-48
2021/12/01 07:42:02;;;;;;;2.40;0.82;;;24.70;36.30;;;;;;5022617;28;20048;-49
2021/12/01 07:44:28;;;;;;;3.15;0.90;;;24.70;36.20;;;;;;5024740;28;20037;-49
2021/12/01 07:46:53;;;;;;;3.10;1.20;;;24.70;36.10;;;;;;5024740;28;20029;-46
2021/12/01 07:49:19;;;;;;;3.00;1.17;;;24.80;36.10;;;;;;5025090;28;20751;-45
2021/12/01 07:51:45;;;;;;;3.72;1.08;;;24.80;35.90;;;;;;5024799;28;20037;-49
2021/12/01 07:54:11;;;;;;;2.28;0.90;;;24.80;35.80;;;;;;5021512;28;20561;-48
2021/12/01 07:56:37;;;;;;;2.60;0.90;;;24.90;35.80;;;;;;5020964;28;20177;-48
2021/12/01 07:59:03;;;;;;;3.17;0.90;;;24.90;35.80;;;;;;5021232;28;20029;-48
2021/12/01 08:01:29;;;;;;;3.15;0.80;;;24.90;35.70;;;;;;5024848;28;20377;-46
2021/12/01 08:03:55;;;;;;;3.30;1.13;;;24.90;35.60;;;;;;5023841;28;20025;-46
2021/12/01 08:06:21;;;;;;;3.25;1.00;;;25.00;35.50;;;;;;5023243;28;20033;-47
2021/12/01 08:08:46;;;;;;;2.70;0.88;;;25.00;35.40;;;;;;5024954;28;20029;-46
2021/12/01 08:11:12;;;;;;;3.53;1.30;;;25.00;35.40;;;;;;5024740;28;20114;-47
2021/12/01 08:13:38;;;;;;;3.33;1.25;;;25.00;35.30;;;;;;5023055;28;20456;-47
2021/12/01 08:16:04;;;;;;;4.10;1.00;;;25.00;35.50;;;;;;5024739;28;20025;-47
2021/12/01 08:18:30;;;;;;;3.55;1.20;;;25.00;35.40;;;;;;5023071;28;20075;-48
2021/12/01 08:20:55;;;;;;;3.17;1.00;;;25.10;35.30;;;;;;5021918;28;20037;-45
2021/12/01 08:23:22;;;;;;;3.17;1.23;;;25.10;35.30;;;;;;5021266;28;20065;-45
2021/12/01 08:25:47;;;;;;;2.22;0.85;;;25.10;35.80;;;;;;5021524;28;20654;-45
2021/12/01 08:28:13;;;;;;;3.85;1.17;;;25.10;35.80;;;;;;5022958;28;20036;-45
2021/12/01 08:30:39;;;;;;;3.33;0.82;;;25.10;35.80;;;;;;5024415;28;20072;-45
2021/12/01 08:33:05;;;;;;;3.42;1.52;;;25.10;35.70;;;;;;5024583;28;20097;-45
2021/12/01 08:35:30;;;;;;;3.10;1.08;;;25.10;35.70;;;;;;5021106;28;20456;-45
2021/12/01 08:37:56;;;;;;;4.50;1.05;;;25.00;35.70;;;;;;5022887;28;20443;-45
2021/12/01 08:40:22;;;;;;;3.75;1.17;;;25.00;35.60;;;;;;5023108;28;20037;-45
2021/12/01 08:42:48;;;;;;;4.28;1.20;;;25.10;35.50;;;;;;5024357;28;20025;-46
2021/12/01 08:45:15;;;;;;;4.10;1.20;;;25.10;35.50;;;;;;5025482;28;20079;-45
2021/12/01 08:47:40;;;;;;;2.97;0.93;;;25.10;35.40;;;;;;5025016;28;20582;-45
2021/12/01 08:50:08;;;;;;;5.18;1.05;;;25.10;35.40;;;;;;5024506;28;20033;-45
2021/12/01 08:52:35;;;;;;;3.35;1.02;;;25.10;35.40;;;;;;5024726;28;20021;-45
2021/12/01 08:55:01;;;;;;;4.88;1.45;;;25.10;35.50;;;;;;5024620;28;20030;-45
2021/12/01 08:57:26;;;;;;;4.88;1.42;;;25.10;35.50;;;;;;5025225;28;20044;-45
2021/12/01 08:59:52;;;;;;;3.75;1.05;;;25.10;35.60;;;;;;5023244;28;20658;-44
2021/12/01 09:02:18;;;;;;;5.18;1.15;;;25.10;35.50;;;;;;5024813;28;20033;-44
2021/12/01 09:04:44;;;;;;;3.38;0.98;;;25.20;35.50;;;;;;5025123;28;20704;-45
2021/12/01 09:07:10;;;;;;;3.33;0.98;;;25.10;35.40;;;;;;5024179;28;20119;-46
2021/12/01 09:09:36;;;;;;;4.13;1.23;;;25.20;35.40;;;;;;5018087;28;20068;-45
2021/12/01 09:12:03;;;;;;;4.22;1.38;;;25.20;35.40;;;;;;5022775;28;20729;-46
2021/12/01 09:14:29;;;;;;;3.15;1.02;;;25.20;35.40;;;;;;5013893;28;20478;-46
2021/12/01 09:16:55;;;;;;;3.58;1.17;;;25.20;35.40;;;;;;5014579;28;20421;-45
2021/12/01 09:19:22;;;;;;;4.93;1.23;;;25.20;35.30;;;;;;5016275;28;20116;-45
2021/12/01 09:21:48;;;;;;;5.07;1.40;;;25.20;35.30;;;;;;5013160;28;20040;-45
2021/12/01 09:24:15;;;;;;;4.60;1.35;;;25.20;35.30;;;;;;5011243;28;20021;-45
2021/12/01 09:26:42;;;;;;;3.80;0.90;;;25.30;35.20;;;;;;5024303;28;20109;-46
2021/12/01 09:29:09;;;;;;;2.67;0.80;;;25.30;35.20;;;;;;5003724;28;20644;-46
2021/12/01 09:31:35;;;;;;;4.18;1.00;;;25.30;35.20;;;;;;5004192;28;20057;-45
2021/12/01 09:34:01;;;;;;;3.55;0.90;;;25.30;35.20;;;;;;5004327;28;20022;-45
2021/12/01 09:36:27;;;;;;;3.30;0.88;;;25.30;35.20;;;;;;5019638;28;20504;-45
2021/12/01 09:38:53;;;;;;;2.60;0.70;;;25.30;35.20;;;;;;5017518;28;20034;-45
2021/12/01 09:41:18;;;;;;;2.95;1.08;;;25.30;35.10;;;;;;5022667;28;20079;-46
2021/12/01 09:43:45;;;;;;;3.80;1.10;;;25.30;35.20;;;;;;5023605;28;20021;-45
2021/12/01 09:46:10;;;;;;;4.70;1.05;;;25.40;35.10;;;;;;5023303;28;20037;-45
2021/12/01 09:48:38;;;;;;;3.65;0.95;;;25.30;35.10;;;;;;5022797;28;20444;-45
2021/12/01 09:51:05;;;;;;;3.67;1.40;;;25.30;35.10;;;;;;5027090;28;20021;-45
2021/12/01 09:53:31;;;;;;;3.33;0.90;;;25.30;35.10;;;;;;5023435;28;20100;-45
2021/12/01 09:55:56;;;;;;;3.97;1.50;;;25.30;35.10;;;;;;5023345;28;20100;-45
2021/12/01 09:58:30;;;;;;;4.70;1.13;;;25.30;35.20;;;;;;5022728;28;20056;-45
2021/12/01 10:01:01;;;;;;;3.45;0.95;;;25.30;35.10;;;;;;5023293;28;20098;-45
2021/12/01 10:03:28;;;;;;;4.07;0.95;;;25.30;35.10;;;;;;5029975;28;20040;-45
2021/12/01 10:09:05;;;;;;;5.47;1.10;;;25.30;35.10;;;;;;5013881;28;20041;-45
2021/12/01 10:11:37;;;;;;;2.90;1.05;;;25.40;35.10;;;;;;5025791;28;20117;-45
2021/12/01 10:14:07;;;;;;;2.63;0.80;;;25.30;35.10;;;;;;5036236;28;20064;-45
2021/12/01 10:16:35;;;;;;;3.25;1.00;;;25.30;35.10;;;;;;5031390;28;20031;-45
2021/12/01 10:19:04;;;;;;;3.40;0.63;;;25.30;35.10;;;;;;5031236;28;20027;-45
2021/12/01 10:21:35;;;;;;;2.90;0.93;;;25.30;35.00;;;;;;5034422;28;20640;-46
2021/12/01 10:24:12;;;;;;;3.53;1.00;;;25.30;35.00;;;;;;5030410;28;20101;-45
2021/12/01 10:26:51;;;;;;;3.53;0.82;;;25.30;35.10;;;;;;5022804;28;20578;-45
2021/12/01 10:29:20;;;;;;;4.35;0.90;;;25.30;35.30;;;;;;5016312;28;20080;-45
2021/12/01 10:31:47;;;;;;;3.90;0.80;;;25.30;35.40;;;;;;5023668;28;20087;-45
2021/12/01 10:34:17;;;;;;;3.53;0.80;;;25.30;35.50;;;;;;5022080;28;20025;-45
2021/12/01 10:36:45;;;;;;;2.40;0.60;;;25.30;35.60;;;;;;5023623;28;20102;-45
2021/12/01 10:39:11;;;;;;;2.50;0.70;;;25.30;35.70;;;;;;5026307;28;20138;-45
2021/12/01 10:41:38;;;;;;;2.92;1.00;;;25.30;35.90;;;;;;5032280;28;20133;-45
2021/12/01 10:44:12;;;;;;;5.85;1.08;;;25.30;35.90;;;;;;5022709;28;20072;-45
2021/12/01 10:46:52;;;;;;;2.75;0.85;;;25.30;36.00;;;;;;5021032;28;20029;-45
2021/12/01 10:49:34;;;;;;;2.20;0.75;;;25.30;35.90;;;;;;5024365;28;20440;-45
2021/12/01 10:52:00;;;;;;;3.90;0.95;;;25.30;36.00;;;;;;5025004;28;20029;-46
2021/12/01 10:54:26;;;;;;;4.30;1.13;;;25.30;35.90;;;;;;5030897;28;20029;-45
2021/12/01 10:57:17;;;;;;;3.05;0.93;;;25.30;35.90;;;;;;5026049;28;20105;-45
2021/12/01 10:59:48;;;;;;;2.72;0.70;;;25.40;35.90;;;;;;5028250;28;20063;-45
2021/12/01 11:02:15;;;;;;;2.38;0.90;;;25.30;35.90;;;;;;5024118;28;20140;-45
2021/12/01 11:04:46;;;;;;;2.85;0.70;;;25.30;35.80;;;;;;5020972;28;20037;-45
2021/12/01 11:07:44;;;;;;;3.45;0.82;;;25.30;35.80;;;;;;5026412;28;20032;-45
2021/12/01 11:10:10;;;;;;;4.47;1.08;;;25.30;35.80;;;;;;5026083;28;20041;-45
2021/12/01 11:12:37;;;;;;;3.90;1.20;;;25.30;35.80;;;;;;5027766;28;20502;-45
2021/12/01 11:15:20;;;;;;;2.70;0.55;;;25.30;35.80;;;;;;5026944;28;20044;-45
2021/12/01 11:17:47;;;;;;;3.85;0.95;;;25.30;35.80;;;;;;5032330;28;20116;-45
2021/12/01 11:20:35;;;;;;;3.65;0.80;;;25.30;35.70;;;;;;5026144;28;20033;-46
2021/12/01 11:23:21;;;;;;;2.97;0.90;;;25.30;35.70;;;;;;5018178;28;20166;-45
2021/12/01 11:26:07;;;;;;;2.88;1.00;;;25.30;35.70;;;;;;5020312;28;20026;-46
2021/12/01 11:28:38;;;;;;;4.78;1.27;;;25.30;35.70;;;;;;5019058;28;20033;-46
2021/12/01 11:31:07;;;;;;;3.05;0.90;;;25.30;35.70;;;;;;5025570;28;20470;-45
2021/12/01 11:33:34;;;;;;;3.15;0.82;;;25.30;35.70;;;;;;5023383;28;20025;-46
2021/12/01 11:36:08;;;;;;;4.57;1.05;;;25.30;35.70;;;;;;5026224;28;20026;-45
2021/12/01 11:38:36;;;;;;;5.63;1.45;;;25.30;35.70;;;;;;5025812;28;20043;-45
2021/12/01 11:41:04;;;;;;;5.13;1.00;;;25.30;35.70;;;;;;5026099;28;20036;-46
2021/12/01 11:43:32;;;;;;;6.40;1.00;;;25.30;35.80;;;;;;5024182;28;20017;-45
2021/12/01 11:45:57;;;;;;;4.93;1.08;;;25.30;35.90;;;;;;5025501;28;20444;-46
2021/12/01 11:48:26;;;;;;;5.22;1.38;;;25.30;36.10;;;;;;5020610;28;20052;-47
2021/12/01 11:50:58;;;;;;;4.18;0.90;;;25.30;36.20;;;;;;5024339;28;20087;-47
2021/12/01 11:53:32;;;;;;;3.65;1.10;;;25.30;36.20;;;;;;5026356;28;20021;-47
2021/12/01 11:56:03;;;;;;;4.53;1.45;;;25.30;36.20;;;;;;5026979;28;20108;-48
2021/12/01 11:58:41;;;;;;;4.40;1.45;;;25.30;36.20;;;;;;5026803;28;20060;-46
2021/12/01 12:01:29;;;;;;;3.30;1.17;;;25.30;36.20;;;;;;5026855;28;20124;-47
2021/12/01 12:04:01;;;;;;;3.63;1.25;;;25.40;36.20;;;;;;5025768;28;20042;-48
2021/12/01 12:06:31;;;;;;;4.80;1.50;;;25.30;36.20;;;;;;5027285;28;20026;-46
2021/12/01 12:09:11;;;;;;;3.25;0.98;;;25.30;36.10;;;;;;5024389;28;20546;-46
2021/12/01 12:12:10;;;;;;;5.13;1.20;;;25.30;36.10;;;;;;5016057;28;20033;-48
2021/12/01 12:14:56;;;;;;;3.65;1.25;;;25.30;36.10;;;;;;5026900;28;20393;-48
2021/12/01 12:17:32;;;;;;;3.70;1.00;;;25.30;36.10;;;;;;5026550;28;20033;-48
2021/12/01 12:20:27;;;;;;;4.05;1.48;;;25.30;36.00;;;;;;5027213;28;20030;-49
2021/12/01 12:22:54;;;;;;;5.18;1.38;;;25.30;36.10;;;;;;5024886;28;20045;-46
2021/12/01 12:25:39;;;;;;;4.43;1.48;;;25.30;36.00;;;;;;5018988;28;20037;-49
2021/12/01 12:28:25;;;;;;;6.05;2.13;;;25.30;36.00;;;;;;5023922;28;20044;-48
2021/12/01 12:30:53;;;;;;;6.65;1.75;;;25.30;36.00;;;;;;5026018;28;20424;-47
2021/12/01 12:33:26;;;;;;;5.10;1.27;;;25.30;36.00;;;;;;5023585;28;20505;-49
2021/12/01 12:35:56;;;;;;;2.97;0.88;;;25.30;36.00;;;;;;5025409;28;20697;-48
2021/12/01 12:38:22;;;;;;;5.20;1.77;;;25.30;36.00;;;;;;5027014;28;20174;-47
2021/12/01 12:40:58;;;;;;;4.25;1.63;;;25.20;36.00;;;;;;5025403;28;20048;-48
2021/12/01 12:43:24;;;;;;;4.20;1.27;;;25.30;36.00;;;;;;5027614;28;20025;-47
2021/12/01 12:46:15;;;;;;;5.03;1.15;;;25.30;36.00;;;;;;5019835;28;20645;-47
2021/12/01 12:48:42;;;;;;;3.25;1.20;;;25.30;36.10;;;;;;5025030;28;20037;-48
2021/12/01 12:51:18;;;;;;;4.53;1.42;;;25.30;36.10;;;;;;5040546;28;20114;-48
2021/12/01 12:54:06;;;;;;;4.45;1.45;;;25.20;36.00;;;;;;5045228;28;20021;-48
2021/12/01 12:56:52;;;;;;;5.15;1.73;;;25.30;36.00;;;;;;5005785;28;20041;-48
2021/12/01 12:59:21;;;;;;;4.72;1.50;;;25.30;36.10;;;;;;5005438;28;20079;-47
2021/12/01 13:02:09;;;;;;;5.07;1.75;;;25.30;36.10;;;;;;5005948;28;20383;-47
2021/12/01 13:05:02;;;;;;;4.07;1.40;;;25.30;36.00;;;;;;5020497;28;20030;-47